Concord, Virginia
Current Conditions -  °F | °C
As of 2:54 PM on Sunday 23 Nov 2014 (Local Time) from KLYH Reporting Station
Light Rain Light Rain  
Wind Chill: 47°   Ceiling: 9000
Heat Index: 47°   Visibility: 10mi
Dew Point: 39°   Wind: 0mph
Humidity: 74%   Direction: NA
Pressure: 30.09"   Gusts: NA
Location:  37.34°N, 78.98°W
Report Text: KLYH 231954Z 00000KT 10SM -RA FEW070 BKN090 OVC110 08/04 A3009 RMK AO2 SLP193 P0001 T00830039 $
Loading
Personal Weather Stations






























Interactive Weather Map New forecast layout! Learn more

10-Day Weather Forecast

Advertisements
Track Severe Weather on mobile